Terminal Aerodrome Forecast
Issued by NWS Tulsa, OK

Home | Current Version | Previous Version | Text Only | Print | Product List | Glossary On
Versions: 1 2 3 4 5 6 7 8 9 10 11 12
000
FTUS44 KTSA 222300
TAFFSM
TAF
KFSM 222320Z 2300/2324 18007KT P6SM FEW250
     FM230200 VRB04KT P6SM FEW250
     FM231500 20010KT P6SM SCT250=

USA.gov is the U.S. government's official web portal to all federal, state and local government web resources and services.